Time;durP1;ratioP1;P1;durP2;ratioP2;P2;SDS_P1;SDS_P2;PMS_P1;PMS_P2;Temp;Humidity;BMP_temperature;BMP_pressure;BME280_temperature;BME280_humidity;BME280_pressure;Samples;Min_cycle;Max_cycle;Signal;HPM_P1;HPM_P2
2021/05/07 00:28:21;;;;;;;;;;;4.60;99.90;;;;;;5932323;23;19905;-81
2021/05/07 00:30:48;;;;;;;;;;;2.80;99.90;;;;;;5058318;28;19944;-82
2021/05/07 00:33:14;;;;;;;;;;;3.30;99.90;;;;;;5057865;28;19937;-81
2021/05/07 00:35:42;;;;;;;;;;;4.10;99.90;;;;;;5083157;23;19904;-80
2021/05/07 00:38:08;;;;;;;;;;;2.00;99.90;;;;;;5048171;28;19948;-80
2021/05/07 00:40:35;;;;;;;;;;;4.70;99.90;;;;;;5046383;28;19975;-80
2021/05/07 00:43:01;;;;;;;;;;;4.50;99.90;;;;;;5045273;28;20353;-80
2021/05/07 00:45:28;;;;;;;;;;;4.60;99.90;;;;;;5044801;28;19921;-80
2021/05/07 00:47:56;;;;;;;;;;;4.50;99.90;;;;;;5044624;28;19925;-80
2021/05/07 00:50:23;;;;;;;;;;;4.50;99.90;;;;;;5044188;28;19984;-80
2021/05/07 00:52:49;;;;;;;;;;;4.50;99.90;;;;;;5042883;28;19921;-80
2021/05/07 00:55:15;;;;;;;;;;;4.50;99.90;;;;;;5042166;28;20349;-80
2021/05/07 00:57:42;;;;;;;;;;;4.60;99.90;;;;;;5041834;28;19928;-80
2021/05/07 01:00:09;;;;;;;;;;;4.50;99.90;;;;;;5041544;28;19929;-80
2021/05/07 01:02:36;;;;;;;;;;;4.60;99.90;;;;;;5040265;28;20384;-79
2021/05/07 01:05:02;;;;;;;;;;;4.60;99.90;;;;;;5040235;28;19920;-79
2021/05/07 01:07:29;;;;;;;;;;;4.60;99.90;;;;;;5039832;28;19921;-80
2021/05/07 01:09:55;;;;;;;;;;;4.60;99.90;;;;;;5039967;28;19945;-80
2021/05/07 01:12:21;;;;;;;;;;;4.60;99.90;;;;;;5039718;28;20003;-80
2021/05/07 01:14:59;;;;;;;;;;;4.70;99.90;;;;;;5039800;28;19951;-80
2021/05/07 01:17:26;;;;;;;;;;;4.60;99.90;;;;;;5040057;28;19921;-80
2021/05/07 01:19:53;;;;;;;;;;;4.60;99.90;;;;;;5038918;28;20297;-80
2021/05/07 01:22:20;;;;;;;;;;;4.50;99.90;;;;;;5038436;28;19921;-79
2021/05/07 01:24:46;;;;;;;;;;;4.50;99.90;;;;;;5038463;28;19928;-79
2021/05/07 01:27:13;;;;;;;;;;;4.40;99.90;;;;;;5037626;28;19927;-79
2021/05/07 01:29:39;;;;;;;;;;;4.40;99.90;;;;;;5037169;28;19920;-79
2021/05/07 01:32:05;;;;;;;;;;;4.40;99.90;;;;;;5037049;28;19921;-79
2021/05/07 01:34:32;;;;;;;;;;;4.30;99.90;;;;;;5037728;28;20113;-79
2021/05/07 01:36:58;;;;;;;;;;;4.30;99.90;;;;;;5038258;28;19921;-80
2021/05/07 01:39:25;;;;;;;;;;;4.30;99.90;;;;;;5040669;28;19925;-80
2021/05/07 01:41:52;;;;;;;;;;;4.20;99.90;;;;;;5038933;28;20371;-80
2021/05/07 01:44:18;;;;;;;;;;;4.20;99.90;;;;;;5040252;28;20345;-80
2021/05/07 01:46:44;;;;;;;;;;;4.20;99.90;;;;;;5039216;28;20427;-80
2021/05/07 01:49:11;;;;;;;;;;;4.20;99.90;;;;;;5041825;28;19921;-80
2021/05/07 01:51:37;;;;;;;;;;;4.10;99.90;;;;;;5041620;28;19927;-80
2021/05/07 01:54:04;;;;;;;;;;;4.10;99.90;;;;;;5042054;28;20350;-80
2021/05/07 01:56:31;;;;;;;;;;;4.10;99.90;;;;;;5043029;28;19921;-80
2021/05/07 01:58:58;;;;;;;;;;;4.10;99.90;;;;;;5042407;28;20257;-80
2021/05/07 02:01:24;;;;;;;;;;;4.10;99.90;;;;;;5042025;28;19925;-80
2021/05/07 02:03:50;;;;;;;;;;;4.10;99.90;;;;;;5040950;28;19921;-79
2021/05/07 02:06:17;;;;;;;;;;;4.10;99.90;;;;;;5041252;28;19921;-80
2021/05/07 02:08:43;;;;;;;;;;;4.10;99.90;;;;;;5041130;28;20024;-79
2021/05/07 02:11:09;;;;;;;;;;;4.10;99.90;;;;;;5041282;28;19924;-80
2021/05/07 02:13:37;;;;;;;;;;;4.10;99.90;;;;;;5041308;28;19921;-80
2021/05/07 02:16:03;;;;;;;;;;;4.10;99.90;;;;;;5040661;28;19925;-80
2021/05/07 02:18:29;;;;;;;;;;;4.10;99.90;;;;;;5040053;28;19921;-79
2021/05/07 02:20:56;;;;;;;;;;;4.10;99.90;;;;;;5039919;28;20280;-79
2021/05/07 02:23:23;;;;;;;;;;;4.10;99.90;;;;;;5040035;28;20008;-79
2021/05/07 02:25:49;;;;;;;;;;;4.10;99.90;;;;;;5040192;28;19921;-79
2021/05/07 02:28:15;;;;;;;;;;;4.10;99.90;;;;;;5040057;28;19931;-79
2021/05/07 02:30:43;;;;;;;;;;;4.20;99.90;;;;;;5040195;28;19921;-79
2021/05/07 02:33:09;;;;;;;;;;;4.20;99.90;;;;;;5039893;28;20300;-80
2021/05/07 02:35:36;;;;;;;;;;;4.20;99.90;;;;;;5040186;28;20234;-80
2021/05/07 02:38:02;;;;;;;;;;;4.20;99.90;;;;;;5041038;28;19929;-80
2021/05/07 02:40:29;;;;;;;;;;;4.30;99.90;;;;;;5039240;28;19967;-79
2021/05/07 02:42:56;;;;;;;;;;;4.30;99.90;;;;;;5038585;28;20274;-79
2021/05/07 02:45:22;;;;;;;;;;;4.30;99.90;;;;;;5038699;28;19932;-79
2021/05/07 02:47:49;;;;;;;;;;;4.40;99.90;;;;;;5039154;28;19920;-79
2021/05/07 02:50:15;;;;;;;;;;;4.50;99.90;;;;;;5042666;28;19927;-79
2021/05/07 02:52:42;;;;;;;;;;;4.60;99.90;;;;;;5054654;28;19920;-81
2021/05/07 02:55:09;;;;;;;;;;;4.70;99.90;;;;;;5054487;28;19931;-80
2021/05/07 02:57:35;;;;;;;;;;;4.80;99.90;;;;;;5053096;28;19976;-80
2021/05/07 03:00:01;;;;;;;;;;;4.90;99.90;;;;;;5053132;28;19954;-80
2021/05/07 03:02:28;;;;;;;;;;;4.90;99.90;;;;;;5053657;28;19927;-80
2021/05/07 03:04:55;;;;;;;;;;;5.00;99.90;;;;;;5053513;28;19931;-80
2021/05/07 03:07:21;;;;;;;;;;;5.00;99.90;;;;;;5053442;28;19921;-80
2021/05/07 03:09:48;;;;;;;;;;;5.10;99.90;;;;;;5053466;28;19921;-80
2021/05/07 03:12:14;;;;;;;;;;;5.10;99.90;;;;;;5052710;28;19927;-80
2021/05/07 03:14:40;;;;;;;;;;;5.10;99.90;;;;;;5052021;28;19931;-80
2021/05/07 03:17:07;;;;;;;;;;;5.10;99.90;;;;;;5051812;28;19928;-80
2021/05/07 03:19:33;;;;;;;;;;;5.00;99.90;;;;;;5053135;28;19905;-81
2021/05/07 03:22:00;;;;;;;;;;;5.00;99.90;;;;;;5054684;28;20082;-81
2021/05/07 03:24:27;;;;;;;;;;;5.00;99.90;;;;;;5053902;28;19976;-80
2021/05/07 03:26:53;;;;;;;;;;;5.00;99.90;;;;;;5054221;28;20024;-80
2021/05/07 03:29:19;;;;;;;;;;;4.90;99.90;;;;;;5053323;28;19984;-80
2021/05/07 03:31:46;;;;;;;;;;;4.90;99.90;;;;;;5053077;28;19921;-81
2021/05/07 03:34:12;;;;;;;;;;;4.90;99.90;;;;;;5052796;28;20310;-80
2021/05/07 03:36:38;;;;;;;;;;;4.90;99.90;;;;;;5054806;28;19972;-80
2021/05/07 03:39:06;;;;;;;;;;;4.80;99.90;;;;;;5055049;28;19925;-80
2021/05/07 03:41:32;;;;;;;;;;;4.80;99.90;;;;;;5053959;28;19964;-81
2021/05/07 03:43:59;;;;;;;;;;;4.80;99.90;;;;;;5053574;28;19960;-81
2021/05/07 03:46:25;;;;;;;;;;;4.80;99.90;;;;;;5052258;28;19989;-80
2021/05/07 03:48:51;;;;;;;;;;;4.70;99.90;;;;;;5052980;28;20004;-80
2021/05/07 03:51:18;;;;;;;;;;;4.70;99.90;;;;;;5052769;28;20016;-80
2021/05/07 03:53:44;;;;;;;;;;;4.70;99.90;;;;;;5051981;28;19996;-81
2021/05/07 03:56:11;;;;;;;;;;;4.70;99.90;;;;;;5051372;28;20012;-80
2021/05/07 03:58:38;;;;;;;;;;;4.60;99.90;;;;;;5052979;28;19931;-81
2021/05/07 04:01:07;;;;;;;;;;;4.60;99.90;;;;;;5053422;28;19925;-80
2021/05/07 04:03:33;;;;;;;;;;;4.60;99.90;;;;;;5052964;28;19925;-80
2021/05/07 04:06:00;;;;;;;;;;;4.50;99.90;;;;;;5053058;28;19952;-80
2021/05/07 04:08:28;;;;;;;;;;;4.50;99.90;;;;;;5051767;28;19975;-80
2021/05/07 04:10:59;;;;;;;;;;;4.50;99.90;;;;;;5047716;28;19936;-80
2021/05/07 04:13:33;;;;;;;;;;;4.40;99.90;;;;;;5045639;28;19928;-80
2021/05/07 04:15:59;;;;;;;;;;;4.40;99.90;;;;;;5044561;28;19956;-80
2021/05/07 04:18:26;;;;;;;;;;;4.30;99.90;;;;;;5042640;28;19948;-79
2021/05/07 04:20:52;;;;;;;;;;;4.30;99.90;;;;;;5041304;28;20345;-76
2021/05/07 04:47:32;;;;;;;;;;;4.00;99.90;;;;;;5856948;23;19927;-81
2021/05/07 04:49:58;;;;;;;;;;;6.60;99.90;;;;;;5246126;23;19956;-79
2021/05/07 04:52:25;;;;;;;;;;;4.00;99.90;;;;;;5034953;28;19933;-78
2021/05/07 04:54:51;;;;;;;;;;;4.00;99.90;;;;;;5034983;28;19921;-79
2021/05/07 04:57:17;;;;;;;;;;;4.00;99.90;;;;;;5035018;28;19920;-78
2021/05/07 04:59:44;;;;;;;;;;;4.00;99.90;;;;;;5034985;28;19991;-78
2021/05/07 05:02:10;;;;;;;;;;;3.90;99.90;;;;;;5034924;28;19920;-78
2021/05/07 05:04:37;;;;;;;;;;;3.90;99.90;;;;;;5034887;28;19921;-77
2021/05/07 05:07:07;;;;;;;;;;;3.90;99.90;;;;;;5050037;28;19935;-78
2021/05/07 05:09:33;;;;;;;;;;;3.90;99.90;;;;;;5051655;28;19925;-78
2021/05/07 05:12:00;;;;;;;;;;;3.90;99.90;;;;;;5054708;28;20019;-78
2021/05/07 05:14:26;;;;;;;;;;;3.90;99.90;;;;;;5054999;28;19920;-78
2021/05/07 05:16:52;;;;;;;;;;;3.90;99.90;;;;;;5054829;28;19932;-76
2021/05/07 05:19:19;;;;;;;;;;;3.90;99.90;;;;;;5054849;28;19920;-75
2021/05/07 05:21:46;;;;;;;;;;;3.90;99.90;;;;;;5054961;28;20256;-76
2021/05/07 05:24:12;;;;;;;;;;;3.90;99.90;;;;;;5058747;28;19931;-75
2021/05/07 05:26:39;;;;;;;;;;;3.90;99.90;;;;;;5058806;28;19920;-75
2021/05/07 05:29:05;;;;;;;;;;;3.90;99.90;;;;;;5058863;28;19960;-75
2021/05/07 05:31:31;;;;;;;;;;;3.90;99.90;;;;;;5058547;28;19921;-75
2021/05/07 05:33:58;;;;;;;;;;;4.00;99.90;;;;;;5058598;28;19920;-76
2021/05/07 05:36:24;;;;;;;;;;;4.00;99.90;;;;;;5057433;28;19920;-75
2021/05/07 05:38:51;;;;;;;;;;;4.00;99.90;;;;;;5058191;28;20022;-75
2021/05/07 05:41:18;;;;;;;;;;;4.00;99.90;;;;;;5057983;28;19921;-75
2021/05/07 05:43:46;;;;;;;;;;;4.10;99.90;;;;;;5057546;28;19920;-75
2021/05/07 05:46:12;;;;;;;;;;;4.20;99.90;;;;;;5058214;28;19933;-75
2021/05/07 05:48:38;;;;;;;;;;;4.20;99.90;;;;;;5057483;28;19931;-75
2021/05/07 05:51:05;;;;;;;;;;;4.30;99.90;;;;;;5057399;28;19928;-75
2021/05/07 05:53:31;;;;;;;;;;;4.40;99.90;;;;;;5047014;28;20345;-75
2021/05/07 05:55:58;;;;;;;;;;;4.50;99.90;;;;;;5044960;28;19921;-75
2021/05/07 05:58:25;;;;;;;;;;;4.50;99.90;;;;;;5038439;28;19920;-75
2021/05/07 06:00:51;;;;;;;;;;;4.60;99.90;;;;;;5038074;28;20234;-76
2021/05/07 06:03:17;;;;;;;;;;;4.70;99.90;;;;;;5038339;28;20001;-75
2021/05/07 06:05:44;;;;;;;;;;;4.80;99.90;;;;;;5038255;28;19931;-75
2021/05/07 06:08:10;;;;;;;;;;;4.90;99.90;;;;;;5038277;28;19921;-75
2021/05/07 06:10:37;;;;;;;;;;;5.00;99.90;;;;;;5038053;28;19932;-75
2021/05/07 06:13:05;;;;;;;;;;;5.00;99.90;;;;;;5038026;28;19967;-75
2021/05/07 06:15:31;;;;;;;;;;;5.10;99.90;;;;;;5037824;28;19921;-75
2021/05/07 06:17:57;;;;;;;;;;;5.20;99.90;;;;;;5037807;28;19960;-75
2021/05/07 06:20:24;;;;;;;;;;;5.30;99.90;;;;;;5038105;28;19995;-75
2021/05/07 06:22:50;;;;;;;;;;;5.40;99.90;;;;;;5037452;28;19931;-75
2021/05/07 06:25:18;;;;;;;;;;;5.50;99.90;;;;;;5037098;28;19943;-75
2021/05/07 06:27:44;;;;;;;;;;;5.60;99.90;;;;;;5032971;28;19968;-76
2021/05/07 06:30:15;;;;;;;;;;;5.70;99.90;;;;;;5034882;28;19921;-75
2021/05/07 06:32:41;;;;;;;;;;;5.80;99.90;;;;;;5037285;28;19921;-75
2021/05/07 06:35:08;;;;;;;;;;;5.90;99.90;;;;;;5036349;28;19921;-75
2021/05/07 06:37:34;;;;;;;;;;;6.10;99.90;;;;;;5037298;28;19931;-75
2021/05/07 06:40:01;;;;;;;5.45;2.13;;;6.40;99.90;;;;;;5035823;28;20430;-78
2021/05/07 06:42:28;;;;;;;;;;;7.00;99.90;;;;;;5037079;28;20053;-79
2021/05/07 06:44:54;;;;;;;;;;;8.70;99.90;;;;;;5037470;28;19921;-77
2021/05/07 06:47:22;;;;;;;6.38;2.30;;;11.10;99.90;;;;;;5036569;28;20791;-76
2021/05/07 06:49:48;;;;;;;3.40;1.80;;;13.00;99.90;;;;;;5036508;28;20115;-77
2021/05/07 06:52:15;;;;;;;5.22;1.65;;;13.50;99.90;;;;;;5036323;28;20377;-77
2021/05/07 06:54:42;;;;;;;7.32;1.73;;;14.10;99.90;;;;;;5037035;28;20060;-76
2021/05/07 06:57:08;;;;;;;7.80;2.33;;;13.90;99.90;;;;;;5036347;28;20083;-76
2021/05/07 06:59:35;;;;;;;10.25;1.77;;;12.90;99.90;;;;;;5036697;28;20045;-76
2021/05/07 07:02:01;;;;;;;7.63;2.42;;;11.70;99.90;;;;;;5036337;28;20041;-77
2021/05/07 07:04:29;;;;;;;8.05;2.10;;;10.60;99.90;;;;;;5036256;28;20063;-77
2021/05/07 07:06:55;;;;;;;5.70;2.55;;;9.80;99.90;;;;;;5036560;28;20049;-77
2021/05/07 07:09:22;;;;;;;5.35;2.00;;;9.20;99.90;;;;;;5036237;28;20067;-76
2021/05/07 07:11:48;;;;;;;;;;;8.80;99.90;;;;;;5036822;28;20134;-77
2021/05/07 07:14:15;;;;;;;;;;;8.70;99.90;;;;;;5036597;28;19924;-77
2021/05/07 07:16:41;;;;;;;;;;;9.00;99.90;;;;;;5036814;28;19943;-77
2021/05/07 07:19:07;;;;;;;;;;;10.10;99.90;;;;;;5036631;28;19921;-78
2021/05/07 07:21:35;;;;;;;6.72;2.13;;;12.10;99.90;;;;;;5036185;28;20422;-77
2021/05/07 07:24:01;;;;;;;7.05;1.52;;;14.40;99.90;;;;;;5036185;28;20056;-76
2021/05/07 07:26:28;;;;;;;6.50;1.77;;;16.60;99.90;;;;;;5036388;28;20118;-76
2021/05/07 07:28:54;;;;;;;;;;;17.50;99.90;;;;;;5036614;28;20056;-76
2021/05/07 07:31:21;;;;;;;;;;;17.00;99.90;;;;;;5036497;28;19921;-76
2021/05/07 07:33:47;;;;;;;4.43;1.30;;;18.20;99.90;;;;;;5035851;28;20425;-76
2021/05/07 07:36:14;;;;;;;5.00;1.00;;;20.20;99.90;;;;;;5035785;28;20458;-76
2021/05/07 07:38:41;;;;;;;3.97;0.80;;;21.70;93.80;;;;;;5035943;28;20049;-76
2021/05/07 07:41:08;;;;;;;2.35;0.85;;;22.90;90.40;;;;;;5036225;28;20041;-77
2021/05/07 07:43:35;;;;;;;1.33;0.63;;;22.00;76.40;;;;;;5035872;28;20053;-76
2021/05/07 07:46:01;;;;;;;2.20;0.65;;;19.90;96.90;;;;;;5035827;28;20053;-76
2021/05/07 07:48:28;;;;;;;2.25;1.02;;;18.80;99.90;;;;;;5035624;28;20053;-75
2021/05/07 07:50:54;;;;;;;3.80;0.70;;;17.20;99.90;;;;;;5034869;28;20049;-75
2021/05/07 07:53:21;;;;;;;3.58;1.00;;;15.60;99.90;;;;;;5035598;28;20115;-76
2021/05/07 07:55:50;;;;;;;1.88;0.90;;;13.90;99.90;;;;;;5035599;28;20060;-83
2021/05/07 07:58:18;;;;;;;2.65;1.00;;;13.00;99.90;;;;;;5047337;28;20049;-76
2021/05/07 08:00:45;;;;;;;3.58;0.73;;;13.50;99.90;;;;;;5055384;28;20461;-75
2021/05/07 08:03:11;;;;;;;;;;;13.20;99.90;;;;;;5055724;28;20105;-77
2021/05/07 08:05:38;;;;;;;5.20;1.33;;;12.80;99.90;;;;;;5054851;28;20429;-76
2021/05/07 08:08:05;;;;;;;5.43;1.20;;;12.10;99.90;;;;;;5055481;28;20118;-76
2021/05/07 08:10:32;;;;;;;3.42;1.13;;;11.40;99.90;;;;;;5055250;28;20053;-77
2021/05/07 08:13:00;;;;;;;6.88;1.60;;;10.80;99.90;;;;;;5055378;28;20059;-76
2021/05/07 08:15:26;;;;;;;5.43;1.50;;;10.40;99.90;;;;;;5055002;28;20084;-78
2021/05/07 08:17:54;;;;;;;5.72;1.50;;;10.10;99.90;;;;;;5054924;28;20142;-78
2021/05/07 08:20:21;;;;;;;7.30;1.73;;;10.00;99.90;;;;;;5055126;28;20049;-77
2021/05/07 08:22:48;;;;;;;1.85;1.33;;;9.90;99.90;;;;;;5054636;28;20041;-76
2021/05/07 08:25:15;;;;;;;3.33;0.82;;;10.00;99.90;;;;;;5053826;28;20049;-77
2021/05/07 08:27:41;;;;;;;3.85;1.10;;;10.00;99.90;;;;;;5054706;28;20071;-77
2021/05/07 08:30:10;;;;;;;2.58;0.88;;;10.00;99.90;;;;;;5055126;28;20140;-76
2021/05/07 08:32:37;;;;;;;6.03;1.08;;;10.00;99.90;;;;;;5054654;28;20081;-77
2021/05/07 08:35:04;;;;;;;6.25;1.27;;;9.90;99.90;;;;;;5055008;28;20057;-76
2021/05/07 08:37:31;;;;;;;5.80;0.98;;;9.80;99.90;;;;;;5054692;28;20477;-77
2021/05/07 08:39:57;;;;;;;10.48;1.30;;;9.80;99.90;;;;;;5055005;28;20048;-77
2021/05/07 08:42:24;;;;;;;4.80;0.80;;;9.70;99.90;;;;;;5054612;28;20110;-76
2021/05/07 08:44:51;;;;;;;2.97;0.82;;;9.50;99.90;;;;;;5054610;28;20049;-76
2021/05/07 08:47:18;;;;;;;2.67;0.80;;;9.40;99.90;;;;;;5054733;28;20052;-77
2021/05/07 08:49:47;;;;;;;2.45;1.02;;;9.30;99.90;;;;;;5054527;28;20067;-77
2021/05/07 08:52:14;;;;;;;5.30;0.77;;;9.30;99.90;;;;;;5054614;28;20045;-76
2021/05/07 08:54:41;;;;;;;1.95;0.60;;;9.30;99.90;;;;;;5054515;28;20055;-78
2021/05/07 08:57:07;;;;;;;1.58;0.60;;;9.30;99.90;;;;;;5054111;28;20055;-77
2021/05/07 08:59:34;;;;;;;8.88;1.95;;;9.40;99.90;;;;;;5054458;28;20483;-78
2021/05/07 09:02:01;;;;;;;4.18;1.13;;;9.40;99.90;;;;;;5054428;28;20408;-78
2021/05/07 09:04:28;;;;;;;2.05;0.68;;;9.50;99.90;;;;;;5054598;28;20444;-79
2021/05/07 09:06:55;;;;;;;5.10;0.93;;;9.70;99.90;;;;;;5054658;28;20049;-78
2021/05/07 09:09:25;;;;;;;3.60;1.08;;;9.80;99.90;;;;;;5054310;28;20450;-78
2021/05/07 09:11:52;;;;;;;3.30;0.85;;;9.80;99.90;;;;;;5054592;28;20103;-79
2021/05/07 09:14:19;;;;;;;8.27;1.83;;;9.90;99.90;;;;;;5054462;28;20078;-78
2021/05/07 09:16:56;;;;;;;4.53;1.50;;;9.90;99.90;;;;;;5054280;28;20462;-79
2021/05/07 09:19:23;;;;;;;4.07;1.63;;;9.80;99.90;;;;;;5054272;28;20049;-78
2021/05/07 09:21:51;;;;;;;4.57;1.52;;;9.80;99.90;;;;;;5054499;28;20122;-79
2021/05/07 09:24:18;;;;;;;6.63;1.27;;;9.90;99.90;;;;;;5054232;28;20530;-78
2021/05/07 09:26:48;;;;;;;1.75;1.30;;;9.90;99.90;;;;;;5054485;28;20049;-80
2021/05/07 09:29:22;;;;;;;6.28;1.48;;;9.90;99.90;;;;;;5054392;28;20063;-79
2021/05/07 09:31:49;;;;;;;5.50;2.13;;;9.80;99.90;;;;;;5054190;28;20488;-78
2021/05/07 09:34:16;;;;;;;4.68;1.10;;;9.90;99.90;;;;;;5054274;28;20553;-80
2021/05/07 09:36:43;;;;;;;3.85;1.40;;;9.90;99.90;;;;;;5054157;28;20057;-78
2021/05/07 09:39:14;;;;;;;4.95;1.10;;;9.80;99.90;;;;;;5054016;28;20110;-78
2021/05/07 09:41:42;;;;;;;4.72;1.55;;;9.80;99.90;;;;;;5054244;28;20103;-78
2021/05/07 09:44:19;;;;;;;1.95;0.60;;;9.90;99.90;;;;;;5054069;28;20358;-80
2021/05/07 09:46:46;;;;;;;2.70;0.80;;;10.00;99.90;;;;;;5054023;28;20053;-78
2021/05/07 09:49:23;;;;;;;4.40;0.60;;;10.10;99.90;;;;;;5053871;28;20048;-79
2021/05/07 09:51:49;;;;;;;2.58;0.75;;;10.20;99.90;;;;;;5054065;28;20045;-78
2021/05/07 09:54:17;;;;;;;5.53;1.20;;;10.30;99.90;;;;;;5053811;28;20049;-78
2021/05/07 09:56:43;;;;;;;2.83;0.77;;;10.40;99.90;;;;;;5054178;28;20374;-78
2021/05/07 09:59:10;;;;;;;2.10;0.85;;;10.30;99.90;;;;;;5053783;28;20119;-79
2021/05/07 10:01:37;;;;;;;4.07;0.82;;;10.20;99.90;;;;;;5054445;28;20385;-80
2021/05/07 10:04:04;;;;;;;4.00;1.00;;;10.10;99.90;;;;;;5054008;28;20061;-80
2021/05/07 10:06:32;;;;;;;2.38;0.70;;;10.10;99.90;;;;;;5053952;28;20056;-79
2021/05/07 10:08:59;;;;;;;4.00;1.00;;;10.10;99.90;;;;;;5054407;28;20126;-78
2021/05/07 10:11:33;;;;;;;3.10;0.65;;;10.20;99.90;;;;;;5057447;28;20045;-81
2021/05/07 10:14:05;;;;;;;2.28;0.68;;;10.30;99.90;;;;;;5057448;28;20103;-83
2021/05/07 10:16:32;;;;;;;4.03;0.73;;;10.30;99.90;;;;;;5057475;28;20424;-80
2021/05/07 10:19:01;;;;;;;2.80;1.00;;;10.30;99.90;;;;;;5059162;28;20044;-81
2021/05/07 10:21:35;;;;;;;2.55;1.17;;;10.40;99.90;;;;;;5057285;28;20059;-80
2021/05/07 10:24:02;;;;;;;5.37;0.73;;;10.60;99.90;;;;;;5057282;28;20049;-80
2021/05/07 10:26:34;;;;;;;5.97;2.60;;;10.80;99.90;;;;;;5057089;28;20359;-80
2021/05/07 10:29:01;;;;;;;3.72;1.10;;;10.90;99.90;;;;;;5057066;28;20499;-78
2021/05/07 10:31:28;;;;;;;4.22;1.02;;;10.90;99.90;;;;;;5056998;28;20102;-80
2021/05/07 10:33:58;;;;;;;3.80;1.40;;;10.80;99.90;;;;;;5056908;28;20053;-79
2021/05/07 10:36:35;;;;;;;4.32;1.27;;;10.60;99.90;;;;;;5057277;28;20055;-77
2021/05/07 10:39:02;;;;;;;4.22;0.98;;;10.30;99.90;;;;;;5056990;28;20454;-78
2021/05/07 10:41:35;;;;;;;5.22;1.30;;;10.10;99.90;;;;;;5057106;28;20052;-78
2021/05/07 10:44:01;;;;;;;4.03;1.40;;;9.90;99.90;;;;;;5057008;28;20049;-78
2021/05/07 10:46:29;;;;;;;5.47;1.27;;;9.80;99.90;;;;;;5056806;28;20049;-78
2021/05/07 10:48:56;;;;;;;4.60;1.10;;;9.80;99.90;;;;;;5056870;28;20048;-77
2021/05/07 10:51:23;;;;;;;3.90;1.10;;;9.70;99.90;;;;;;5056516;28;20053;-77
2021/05/07 10:53:50;;;;;;;4.70;1.38;;;9.70;99.90;;;;;;5056399;28;20154;-78
2021/05/07 10:56:19;;;;;;;1.45;0.75;;;9.90;99.90;;;;;;5056518;28;20049;-79
2021/05/07 10:58:46;;;;;;;2.95;1.20;;;10.10;99.90;;;;;;5056102;28;20049;-80
2021/05/07 11:01:21;;;;;;;2.72;0.70;;;10.30;99.90;;;;;;5056568;28;20496;-78
2021/05/07 11:04:00;;;;;;;3.67;0.82;;;10.40;99.90;;;;;;5056427;28;20135;-77
2021/05/07 11:06:30;;;;;;;6.28;1.00;;;10.60;99.90;;;;;;5056508;28;20139;-78
2021/05/07 11:08:58;;;;;;;4.50;1.08;;;10.70;99.90;;;;;;5056253;28;20416;-78
2021/05/07 11:11:25;;;;;;;1.48;0.60;;;10.70;99.90;;;;;;5056176;28;20055;-79
2021/05/07 11:13:52;;;;;;;4.72;0.82;;;10.60;99.90;;;;;;5055154;28;20359;-79
2021/05/07 11:16:19;;;;;;;12.30;1.83;;;10.50;99.90;;;;;;5056587;28;20053;-79
2021/05/07 11:18:49;;;;;;;1.52;1.15;;;10.30;99.90;;;;;;5056297;28;20140;-78
2021/05/07 11:21:16;;;;;;;3.97;0.98;;;10.20;99.90;;;;;;5055820;28;20075;-78
2021/05/07 11:23:42;;;;;;;5.68;1.95;;;10.20;99.90;;;;;;5056162;28;20122;-79
2021/05/07 11:26:09;;;;;;;0.80;0.70;;;10.10;99.90;;;;;;5056223;28;20114;-78
2021/05/07 11:28:42;;;;;;;1.63;0.80;;;10.20;99.90;;;;;;5054877;28;20060;-78
2021/05/07 11:31:09;;;;;;;1.77;0.90;;;10.30;99.90;;;;;;5055666;28;20458;-78
2021/05/07 11:33:36;;;;;;;2.83;1.33;;;10.40;99.90;;;;;;5056121;28;20075;-78
2021/05/07 11:36:07;;;;;;;1.23;0.50;;;10.50;99.90;;;;;;5055878;28;20122;-80
2021/05/07 11:38:33;;;;;;;2.33;0.90;;;10.60;99.90;;;;;;5055295;28;20056;-78
2021/05/07 11:41:00;;;;;;;3.60;0.82;;;10.70;99.90;;;;;;5055586;28;20060;-78
2021/05/07 11:43:27;;;;;;;5.95;1.20;;;10.80;99.90;;;;;;5055507;28;20044;-77
2021/05/07 11:46:03;;;;;;;6.22;1.65;;;10.80;99.90;;;;;;5055270;28;20481;-80
2021/05/07 11:48:30;;;;;;;4.80;2.40;;;10.70;99.90;;;;;;5055769;28;20135;-77
2021/05/07 11:50:57;;;;;;;3.30;0.90;;;10.50;99.90;;;;;;5055511;28;20063;-77
2021/05/07 11:53:23;;;;;;;4.35;0.85;;;10.30;99.90;;;;;;5055512;28;20053;-77
2021/05/07 11:55:50;;;;;;;;;;;10.20;99.90;;;;;;5056229;28;20052;-77
2021/05/07 11:58:16;;;;;;;;;;;10.30;99.90;;;;;;5055788;28;19928;-77
2021/05/07 12:00:43;;;;;;;;;;;10.40;99.90;;;;;;5055814;28;19931;-77
2021/05/07 12:03:09;;;;;;;;;;;10.60;99.90;;;;;;5055955;28;19946;-77
2021/05/07 12:05:37;;;;;;;;;;;10.70;99.90;;;;;;5054292;28;20051;-77
2021/05/07 12:08:04;;;;;;;;;;;10.80;99.90;;;;;;5055815;28;19928;-77
2021/05/07 12:10:31;;;;;;;5.53;0.90;;;10.90;99.90;;;;;;5053603;28;20834;-77
2021/05/07 12:12:58;;;;;;;3.05;0.88;;;10.90;99.90;;;;;;5055308;28;20048;-79
2021/05/07 12:15:27;;;;;;;3.50;0.75;;;10.90;99.90;;;;;;5055174;28;20091;-77
2021/05/07 12:17:54;;;;;;;3.05;0.77;;;11.00;99.90;;;;;;5055181;28;20118;-79
2021/05/07 12:20:21;;;;;;;3.42;1.35;;;11.10;99.90;;;;;;5055456;28;20106;-77
2021/05/07 12:22:52;;;;;;;2.88;0.90;;;11.20;99.90;;;;;;5054981;28;20045;-77
2021/05/07 12:25:20;;;;;;;4.60;1.00;;;11.30;99.90;;;;;;5054887;28;20049;-77
2021/05/07 12:27:47;;;;;;;;;;;11.20;99.90;;;;;;5055386;28;20084;-77
2021/05/07 12:30:21;;;;;;;4.93;1.52;;;11.10;99.90;;;;;;5054038;28;20424;-78
2021/05/07 12:32:54;;;;;;;;;;;10.90;99.90;;;;;;5054581;28;20041;-76
2021/05/07 12:35:21;;;;;;;;;;;10.90;99.90;;;;;;5055511;28;19921;-77
2021/05/07 12:37:48;;;;;;;;;;;10.90;99.90;;;;;;5055142;28;19973;-77
2021/05/07 12:40:15;;;;;;;;;;;11.10;99.90;;;;;;5055162;28;19920;-77
2021/05/07 12:42:41;;;;;;;;;;;11.20;99.90;;;;;;5055295;28;19927;-78
2021/05/07 12:45:08;;;;;;;;;;;11.40;99.90;;;;;;5055213;28;19920;-77
2021/05/07 12:47:34;;;;;;;5.55;1.08;;;11.60;99.90;;;;;;5054078;28;20420;-79
2021/05/07 12:50:01;;;;;;;4.07;1.17;;;11.70;99.90;;;;;;5054328;28;20056;-78
2021/05/07 12:52:27;;;;;;;;;;;11.80;99.90;;;;;;5054915;28;20453;-77
2021/05/07 12:54:55;;;;;;;;;;;11.80;99.90;;;;;;5054977;28;20352;-77
2021/05/07 12:57:21;;;;;;;;;;;11.70;99.90;;;;;;5054961;28;19920;-77
2021/05/07 12:59:47;;;;;;;;;;;11.70;99.90;;;;;;5054850;28;20363;-78
2021/05/07 13:02:14;;;;;;;;;;;11.50;99.90;;;;;;5054971;28;19920;-77
2021/05/07 13:04:40;;;;;;;;;;;11.40;99.90;;;;;;5054853;28;19970;-79
2021/05/07 13:07:06;;;;;;;;;;;11.20;99.90;;;;;;5054834;28;19921;-77
2021/05/07 13:09:33;;;;;;;;;;;11.10;99.90;;;;;;5054659;28;19928;-77
2021/05/07 13:12:00;;;;;;;;;;;11.10;99.90;;;;;;5054766;28;19921;-77
2021/05/07 13:14:26;;;;;;;;;;;10.90;99.90;;;;;;5054834;28;19925;-77
2021/05/07 13:16:53;;;;;;;;;;;10.80;99.90;;;;;;5054680;28;20072;-76
2021/05/07 13:19:19;;;;;;;;;;;10.80;99.90;;;;;;5056271;28;19931;-79
2021/05/07 13:21:46;;;;;;;;;;;10.80;99.90;;;;;;5055554;28;19933;-81
2021/05/07 13:24:13;;;;;;;;;;;10.90;99.90;;;;;;5054785;28;19925;-78
2021/05/07 13:26:39;;;;;;;;;;;10.90;99.90;;;;;;5054744;28;19931;-78
2021/05/07 13:29:06;;;;;;;;;;;10.90;99.90;;;;;;5054613;28;19921;-78
2021/05/07 13:31:34;;;;;;;;;;;10.80;99.90;;;;;;5054510;28;19929;-78
2021/05/07 13:34:00;;;;;;;;;;;10.70;99.90;;;;;;5055865;28;19932;-85
2021/05/07 13:36:26;;;;;;;;;;;10.60;99.90;;;;;;5054810;28;19920;-80
2021/05/07 13:38:53;;;;;;;;;;;10.50;99.90;;;;;;5055966;28;19999;-80
2021/05/07 13:41:20;;;;;;;;;;;10.40;99.90;;;;;;5054591;28;19927;-81
2021/05/07 13:43:46;;;;;;;;;;;10.30;99.90;;;;;;5056911;28;19920;-80
2021/05/07 13:46:13;;;;;;;;;;;10.30;99.90;;;;;;5058729;28;19920;-78
2021/05/07 13:48:40;;;;;;;;;;;10.20;99.90;;;;;;5058092;28;19921;-79
2021/05/07 13:51:06;;;;;;;;;;;10.10;99.90;;;;;;5057485;28;19967;-80
2021/05/07 13:53:32;;;;;;;;;;;10.20;99.90;;;;;;5057612;28;19930;-78
2021/05/07 13:55:59;;;;;;;;;;;10.20;99.90;;;;;;5058059;28;19921;-78
2021/05/07 13:58:25;;;;;;;;;;;10.30;99.90;;;;;;5058050;28;19927;-78
2021/05/07 14:00:51;;;;;;;;;;;10.30;99.90;;;;;;5058045;28;19920;-78
2021/05/07 14:03:19;;;;;;;;;;;10.40;99.90;;;;;;5058372;28;19920;-79
2021/05/07 14:05:46;;;;;;;;;;;10.40;99.90;;;;;;5058209;28;19920;-78
2021/05/07 14:08:13;;;;;;;;;;;10.40;99.90;;;;;;5058180;28;19983;-79
2021/05/07 14:10:39;;;;;;;;;;;10.50;99.90;;;;;;5058224;28;19921;-78
2021/05/07 14:13:06;;;;;;;;;;;10.50;99.90;;;;;;5058027;28;19921;-79
2021/05/07 14:15:32;;;;;;;;;;;10.40;99.90;;;;;;5058222;28;19921;-80
2021/05/07 14:17:59;;;;;;;;;;;10.40;99.90;;;;;;5058049;28;19927;-81
2021/05/07 14:20:26;;;;;;;;;;;10.30;99.90;;;;;;5058010;28;19921;-79
2021/05/07 14:22:52;;;;;;;;;;;10.30;99.90;;;;;;5057657;28;19920;-79
2021/05/07 14:25:19;;;;;;;;;;;10.40;99.90;;;;;;5057747;28;19927;-80
2021/05/07 14:27:45;;;;;;;;;;;10.40;99.90;;;;;;5057617;28;19921;-79
2021/05/07 14:30:12;;;;;;;;;;;10.50;99.90;;;;;;5057571;28;19931;-79
2021/05/07 14:32:39;;;;;;;;;;;10.60;99.90;;;;;;5057441;28;20019;-79
2021/05/07 14:35:06;;;;;;;;;;;10.60;99.90;;;;;;5057371;28;19921;-78
2021/05/07 14:37:33;;;;;;;;;;;10.70;99.90;;;;;;5057801;28;20252;-78